San José, CA

21:34 PST le 22 novembre 2014 (GMT -0800)
Moffett Federal Air Field | Change Station
CLOSE
Current Station
Aéroport
Location: Moffett NAS,
Altitude: 39 ft
Stations météo à proximité

Alt. 39 ft 37.41 °N, 122.05 °W | Updated 38 minutes ago

Ciel dégagé
Ciel dégagé
56 ° F
Paraît 56 ° F
N
4
Vent Variable Vent de OSO

Aujourd'hui
Haut(e) -- | Bas -- ° F
--% Risque de précip.
Hier
Haut(e) -- | Bas -- ° F
Precip. -- pouce
6:54 AM 4:52 PM
Nouvelle lune, 1% visible
Pression 30.23 pouce
Visibilité 10.0 Miles terrestres
Nuages Ciel dégagé
Point de rosée 51 ° F
Humidité 84%
Précipitations 0.01 pouce
Profondeur de la couche neigeuse Non disponible.
UV 0 sur 12
Pollen .40 sur 12
Qualité de l'air Non disponible.
Flu Activity Non disponible.
METAR KNUQ 230456Z 25003KT 10SM CLR 13/11 A3022 RMK AO2 SLP236 T01330106

More Conditions Fewer Conditions

Pression 30.23 pouce
Visibilité 10.0 Miles terrestres
Nuages Ciel dégagé
Point de rosée 51 ° F
Humidité 84%
Précipitations 0.01 pouce
Profondeur de la couche neigeuse Non disponible.
UV 0 sur 12
Pollen .40 sur 12
Qualité de l'air Non disponible.
Flu Activity Non disponible.
METAR KNUQ 230456Z 25003KT 10SM CLR 13/11 A3022 RMK AO2 SLP236 T01330106

More Conditions Fewer Conditions

10-Day Weather Forecast

Almanac

Astronomie

Nov. 22, 2014 Lever Coucher
Temps réel
Crépuscule civil
Crépuscule nautique
Crépuscule astronomique
Lune
Durée de lumière visible
Longueur du jour
Tomorrow will be .
, % of the Moon is Illuminated

Extrêmes aujourd'hui

State Highs State Lows

Community

WunderPhotos

Upload Photos

1,773,016 Photos téléchargées !

WunderBlogs® & News

Nearby

Qualité de l'air

  Qualité de l'air Indice de la qualité de l'air Polluant
Not available.

Épaisseur de neige

Station Depth Altitude

Activité sismique

Ville Distance Mag. Time & Date
Minimum magnitude displayed is 2.5.

Températures des eaux côtières

Lieu Température

Stations météo à proximité